Lockwood, Montana
Current Conditions -  °F | °C
As of 6:53 PM on Sunday 21 Dec 2014 (Local Time) from KBIL Reporting Station
Broken Clouds Broken Clouds  
Wind Chill: 35°   Ceiling: 15000
Heat Index: 44°   Visibility: 10mi
Dew Point: 19°   Wind: 25mph
Humidity: 37%   Direction: 290°WNW
Pressure: 29.59"   Gusts: 36mph
Location:  45.6311°N, 108.351°W
Report Text: KBIL 220153Z 29022G31KT 10SM FEW100 BKN150 07/M07 A2959 RMK AO2 PK WND 29031/0114 SLP029 T00671072
Loading
Personal Weather Stations






























Interactive Weather Map New forecast layout! Learn more

10-Day Weather Forecast

Advertisements
Track Severe Weather on mobile